sensor_id;sensor_type;location;lat;lon;timestamp;pressure;altitude;pressure_sealevel;temperature;humidity
43804;BME280;29430;52.924;-2.388;2023-03-18T00:00:06;97891.91;;;9.91;100.00
43804;BME280;29430;52.924;-2.388;2023-03-18T00:05:00;97901.94;;;9.91;100.00
43804;BME280;29430;52.924;-2.388;2023-03-18T00:09:52;97894.56;;;9.86;100.00
43804;BME280;29430;52.924;-2.388;2023-03-18T00:14:44;97906.22;;;9.86;100.00
43804;BME280;29430;52.924;-2.388;2023-03-18T00:19:35;97904.59;;;9.85;100.00
43804;BME280;29430;52.924;-2.388;2023-03-18T00:24:27;97903.78;;;9.85;100.00
43804;BME280;29430;52.924;-2.388;2023-03-18T00:29:19;97910.81;;;9.86;100.00
43804;BME280;29430;52.924;-2.388;2023-03-18T00:34:11;97909.50;;;9.89;100.00
43804;BME280;29430;52.924;-2.388;2023-03-18T00:39:05;97910.06;;;9.91;100.00
43804;BME280;29430;52.924;-2.388;2023-03-18T00:43:58;97906.53;;;9.90;100.00
43804;BME280;29430;52.924;-2.388;2023-03-18T00:48:52;97912.22;;;9.89;100.00
43804;BME280;29430;52.924;-2.388;2023-03-18T00:53:47;97910.81;;;9.86;100.00
43804;BME280;29430;52.924;-2.388;2023-03-18T00:58:39;97908.38;;;9.84;100.00
43804;BME280;29430;52.924;-2.388;2023-03-18T01:03:31;97919.47;;;9.83;100.00
43804;BME280;29430;52.924;-2.388;2023-03-18T01:08:25;97925.13;;;9.81;100.00
43804;BME280;29430;52.924;-2.388;2023-03-18T01:13:17;97918.91;;;9.81;100.00
43804;BME280;29430;52.924;-2.388;2023-03-18T01:18:09;97922.16;;;9.83;100.00
43804;BME280;29430;52.924;-2.388;2023-03-18T01:23:01;97917.28;;;9.80;100.00
43804;BME280;29430;52.924;-2.388;2023-03-18T01:27:53;97920.78;;;9.80;100.00
43804;BME280;29430;52.924;-2.388;2023-03-18T01:32:48;97928.91;;;9.80;100.00
43804;BME280;29430;52.924;-2.388;2023-03-18T01:37:41;97922.44;;;9.81;100.00
43804;BME280;29430;52.924;-2.388;2023-03-18T01:42:36;97925.94;;;9.82;100.00
43804;BME280;29430;52.924;-2.388;2023-03-18T01:47:28;97919.72;;;9.81;100.00
43804;BME280;29430;52.924;-2.388;2023-03-18T01:52:26;97909.97;;;9.80;100.00
43804;BME280;29430;52.924;-2.388;2023-03-18T01:57:20;97905.06;;;9.77;100.00
43804;BME280;29430;52.924;-2.388;2023-03-18T02:02:19;97906.69;;;9.78;100.00
43804;BME280;29430;52.924;-2.388;2023-03-18T02:07:28;97911.81;;;9.75;100.00
43804;BME280;29430;52.924;-2.388;2023-03-18T02:12:24;97913.13;;;9.72;100.00
43804;BME280;29430;52.924;-2.388;2023-03-18T02:17:20;97906.34;;;9.70;100.00
43804;BME280;29430;52.924;-2.388;2023-03-18T02:27:32;97896.00;;;9.61;100.00
43804;BME280;29430;52.924;-2.388;2023-03-18T02:32:27;97888.91;;;9.55;100.00
43804;BME280;29430;52.924;-2.388;2023-03-18T02:37:21;97892.88;;;9.47;100.00
43804;BME280;29430;52.924;-2.388;2023-03-18T02:42:13;97898.50;;;9.41;100.00
43804;BME280;29430;52.924;-2.388;2023-03-18T02:47:10;97882.47;;;9.34;100.00
43804;BME280;29430;52.924;-2.388;2023-03-18T02:52:04;97893.22;;;9.29;100.00
43804;BME280;29430;52.924;-2.388;2023-03-18T02:56:56;97897.75;;;9.23;100.00
43804;BME280;29430;52.924;-2.388;2023-03-18T03:01:51;97899.38;;;9.19;100.00
43804;BME280;29430;52.924;-2.388;2023-03-18T03:06:44;97892.81;;;9.15;100.00
43804;BME280;29430;52.924;-2.388;2023-03-18T03:11:36;97900.88;;;9.10;100.00
43804;BME280;29430;52.924;-2.388;2023-03-18T03:16:28;97904.91;;;9.07;100.00
43804;BME280;29430;52.924;-2.388;2023-03-18T03:21:20;97908.91;;;9.05;100.00
43804;BME280;29430;52.924;-2.388;2023-03-18T03:26:14;97909.66;;;9.00;100.00
43804;BME280;29430;52.924;-2.388;2023-03-18T03:31:06;97914.28;;;9.00;100.00
43804;BME280;29430;52.924;-2.388;2023-03-18T03:35:59;97920.19;;;8.96;100.00
43804;BME280;29430;52.924;-2.388;2023-03-18T03:40:51;97929.09;;;8.97;100.00
43804;BME280;29430;52.924;-2.388;2023-03-18T03:45:44;97917.72;;;8.95;100.00
43804;BME280;29430;52.924;-2.388;2023-03-18T03:50:38;97927.75;;;8.94;100.00
43804;BME280;29430;52.924;-2.388;2023-03-18T03:55:30;97923.34;;;8.88;100.00
43804;BME280;29430;52.924;-2.388;2023-03-18T04:00:22;97924.41;;;8.87;100.00
43804;BME280;29430;52.924;-2.388;2023-03-18T04:05:15;97940.06;;;8.85;100.00
43804;BME280;29430;52.924;-2.388;2023-03-18T04:10:12;97941.13;;;8.84;100.00
43804;BME280;29430;52.924;-2.388;2023-03-18T04:15:07;97944.38;;;8.86;100.00
43804;BME280;29430;52.924;-2.388;2023-03-18T04:20:03;97946.59;;;8.89;100.00
43804;BME280;29430;52.924;-2.388;2023-03-18T04:24:55;97953.13;;;8.93;100.00
43804;BME280;29430;52.924;-2.388;2023-03-18T04:29:49;97958.84;;;8.97;100.00
43804;BME280;29430;52.924;-2.388;2023-03-18T04:34:43;97954.84;;;9.00;100.00
43804;BME280;29430;52.924;-2.388;2023-03-18T04:39:35;97962.19;;;9.04;100.00
43804;BME280;29430;52.924;-2.388;2023-03-18T04:44:28;97961.13;;;9.05;100.00
43804;BME280;29430;52.924;-2.388;2023-03-18T04:49:20;97969.00;;;9.07;100.00
43804;BME280;29430;52.924;-2.388;2023-03-18T04:54:12;97976.03;;;9.08;100.00
43804;BME280;29430;52.924;-2.388;2023-03-18T04:59:04;97972.75;;;9.06;100.00
43804;BME280;29430;52.924;-2.388;2023-03-18T05:03:56;97969.00;;;9.07;100.00
43804;BME280;29430;52.924;-2.388;2023-03-18T05:08:48;97979.56;;;9.08;100.00
43804;BME280;29430;52.924;-2.388;2023-03-18T05:13:41;97984.72;;;9.10;100.00
43804;BME280;29430;52.924;-2.388;2023-03-18T05:18:33;97980.44;;;9.14;100.00
43804;BME280;29430;52.924;-2.388;2023-03-18T05:23:25;97977.97;;;9.12;100.00
43804;BME280;29430;52.924;-2.388;2023-03-18T05:28:16;97995.03;;;9.13;100.00
43804;BME280;29430;52.924;-2.388;2023-03-18T05:33:08;97979.56;;;9.08;100.00
43804;BME280;29430;52.924;-2.388;2023-03-18T05:38:00;97982.78;;;9.05;100.00
43804;BME280;29430;52.924;-2.388;2023-03-18T05:42:52;97987.34;;;9.05;100.00
43804;BME280;29430;52.924;-2.388;2023-03-18T05:47:46;97987.84;;;9.02;100.00
43804;BME280;29430;52.924;-2.388;2023-03-18T05:52:38;97994.91;;;9.03;100.00
43804;BME280;29430;52.924;-2.388;2023-03-18T05:57:30;97997.59;;;9.03;100.00
43804;BME280;29430;52.924;-2.388;2023-03-18T06:02:23;97993.25;;;9.02;100.00
43804;BME280;29430;52.924;-2.388;2023-03-18T06:07:17;98006.53;;;9.03;100.00
43804;BME280;29430;52.924;-2.388;2023-03-18T06:12:09;98008.16;;;9.04;100.00
43804;BME280;29430;52.924;-2.388;2023-03-18T06:17:00;98013.56;;;9.04;100.00
43804;BME280;29430;52.924;-2.388;2023-03-18T06:21:52;98017.09;;;9.05;100.00
43804;BME280;29430;52.924;-2.388;2023-03-18T06:26:44;98015.13;;;9.00;100.00
43804;BME280;29430;52.924;-2.388;2023-03-18T06:31:36;98027.34;;;9.03;100.00
43804;BME280;29430;52.924;-2.388;2023-03-18T06:36:29;98020.03;;;9.03;100.00
43804;BME280;29430;52.924;-2.388;2023-03-18T06:41:21;98026.03;;;9.05;100.00
43804;BME280;29430;52.924;-2.388;2023-03-18T06:46:12;98033.66;;;9.08;100.00
43804;BME280;29430;52.924;-2.388;2023-03-18T06:51:06;98026.09;;;9.10;100.00
43804;BME280;29430;52.924;-2.388;2023-03-18T06:55:58;98037.47;;;9.12;100.00
43804;BME280;29430;52.924;-2.388;2023-03-18T07:00:51;98044.28;;;9.15;100.00
43804;BME280;29430;52.924;-2.388;2023-03-18T07:05:43;98031.31;;;9.17;100.00
43804;BME280;29430;52.924;-2.388;2023-03-18T07:10:35;98044.34;;;9.20;100.00
43804;BME280;29430;52.924;-2.388;2023-03-18T07:15:27;98050.91;;;9.24;100.00
43804;BME280;29430;52.924;-2.388;2023-03-18T07:20:19;98050.66;;;9.26;100.00
43804;BME280;29430;52.924;-2.388;2023-03-18T07:25:13;98053.09;;;9.27;100.00
43804;BME280;29430;52.924;-2.388;2023-03-18T07:30:06;98056.44;;;9.35;100.00
43804;BME280;29430;52.924;-2.388;2023-03-18T07:34:59;98067.84;;;9.37;100.00
43804;BME280;29430;52.924;-2.388;2023-03-18T07:39:53;98073.06;;;9.43;100.00
43804;BME280;29430;52.924;-2.388;2023-03-18T07:44:44;98076.09;;;9.47;100.00
43804;BME280;29430;52.924;-2.388;2023-03-18T07:49:36;98073.13;;;9.48;100.00
43804;BME280;29430;52.924;-2.388;2023-03-18T07:54:28;98082.72;;;9.56;100.00
43804;BME280;29430;52.924;-2.388;2023-03-18T07:59:19;98081.44;;;9.64;100.00
43804;BME280;29430;52.924;-2.388;2023-03-18T08:04:11;98082.31;;;9.70;100.00
43804;BME280;29430;52.924;-2.388;2023-03-18T08:09:04;98084.00;;;9.76;100.00
43804;BME280;29430;52.924;-2.388;2023-03-18T08:13:55;98085.28;;;9.90;100.00
43804;BME280;29430;52.924;-2.388;2023-03-18T08:18:47;98087.44;;;10.15;100.00
43804;BME280;29430;52.924;-2.388;2023-03-18T08:23:39;98082.84;;;10.43;100.00
43804;BME280;29430;52.924;-2.388;2023-03-18T08:28:31;98095.69;;;10.58;100.00
43804;BME280;29430;52.924;-2.388;2023-03-18T08:33:25;98094.13;;;10.62;100.00
43804;BME280;29430;52.924;-2.388;2023-03-18T08:38:17;98094.47;;;10.71;100.00
43804;BME280;29430;52.924;-2.388;2023-03-18T08:43:09;98100.06;;;10.97;100.00
43804;BME280;29430;52.924;-2.388;2023-03-18T08:48:01;98108.56;;;11.05;100.00
43804;BME280;29430;52.924;-2.388;2023-03-18T08:52:54;98104.78;;;11.06;100.00
43804;BME280;29430;52.924;-2.388;2023-03-18T08:57:50;98108.16;;;11.29;100.00
43804;BME280;29430;52.924;-2.388;2023-03-18T09:02:42;98108.31;;;11.55;100.00
43804;BME280;29430;52.924;-2.388;2023-03-18T09:07:33;98116.59;;;11.80;100.00
43804;BME280;29430;52.924;-2.388;2023-03-18T09:12:25;98114.25;;;12.05;100.00
43804;BME280;29430;52.924;-2.388;2023-03-18T09:17:17;98117.34;;;12.49;100.00
43804;BME280;29430;52.924;-2.388;2023-03-18T09:22:09;98120.09;;;12.90;97.53
43804;BME280;29430;52.924;-2.388;2023-03-18T09:27:01;98123.34;;;12.93;93.91
43804;BME280;29430;52.924;-2.388;2023-03-18T09:31:53;98130.16;;;12.80;95.38
43804;BME280;29430;52.924;-2.388;2023-03-18T09:36:46;98124.44;;;12.71;96.03
43804;BME280;29430;52.924;-2.388;2023-03-18T09:56:58;98132.03;;;13.20;92.77
43804;BME280;29430;52.924;-2.388;2023-03-18T10:01:53;98124.16;;;13.34;92.92
43804;BME280;29430;52.924;-2.388;2023-03-18T10:06:47;98132.19;;;13.81;92.43
43804;BME280;29430;52.924;-2.388;2023-03-18T10:16:43;98138.66;;;15.29;84.32
43804;BME280;29430;52.924;-2.388;2023-03-18T10:21:41;98140.75;;;15.37;78.85
43804;BME280;29430;52.924;-2.388;2023-03-18T10:26:43;98134.13;;;15.14;80.91
43804;BME280;29430;52.924;-2.388;2023-03-18T10:31:40;98139.09;;;15.07;80.01
43804;BME280;29430;52.924;-2.388;2023-03-18T10:41:36;98145.38;;;15.66;78.45
43804;BME280;29430;52.924;-2.388;2023-03-18T10:46:29;98152.25;;;15.64;76.06
43804;BME280;29430;52.924;-2.388;2023-03-18T10:51:29;98159.84;;;15.67;76.26
43804;BME280;29430;52.924;-2.388;2023-03-18T10:56:24;98151.28;;;15.79;75.31
43804;BME280;29430;52.924;-2.388;2023-03-18T11:01:18;98158.88;;;15.82;74.86
43804;BME280;29430;52.924;-2.388;2023-03-18T11:12:02;98150.38;;;16.51;74.48
43804;BME280;29430;52.924;-2.388;2023-03-18T11:16:59;98144.44;;;16.81;72.60
43804;BME280;29430;52.924;-2.388;2023-03-18T11:22:24;98146.22;;;17.10;70.40
43804;BME280;29430;52.924;-2.388;2023-03-18T11:37:13;98153.31;;;17.58;67.00
43804;BME280;29430;52.924;-2.388;2023-03-18T11:42:20;98149.59;;;18.23;63.46
43804;BME280;29430;52.924;-2.388;2023-03-18T11:47:18;98148.66;;;18.78;60.50
43804;BME280;29430;52.924;-2.388;2023-03-18T12:18:21;98142.84;;;17.46;63.46
43804;BME280;29430;52.924;-2.388;2023-03-18T12:33:42;98139.91;;;17.43;67.08
43804;BME280;29430;52.924;-2.388;2023-03-18T12:44:02;98129.34;;;17.78;64.08
43804;BME280;29430;52.924;-2.388;2023-03-18T12:49:35;98130.38;;;17.68;60.77
43804;BME280;29430;52.924;-2.388;2023-03-18T12:54:32;98142.59;;;17.29;61.68
43804;BME280;29430;52.924;-2.388;2023-03-18T12:59:39;98148.56;;;17.17;64.02
43804;BME280;29430;52.924;-2.388;2023-03-18T13:04:33;98134.78;;;17.36;65.76
43804;BME280;29430;52.924;-2.388;2023-03-18T13:09:44;98137.97;;;17.43;63.33
43804;BME280;29430;52.924;-2.388;2023-03-18T13:14:43;98147.69;;;17.35;63.42
43804;BME280;29430;52.924;-2.388;2023-03-18T13:19:40;98144.66;;;17.37;63.16
43804;BME280;29430;52.924;-2.388;2023-03-18T13:29:46;98132.38;;;17.48;62.97
43804;BME280;29430;52.924;-2.388;2023-03-18T13:34:55;98138.44;;;17.31;63.47
43804;BME280;29430;52.924;-2.388;2023-03-18T13:55:39;98153.22;;;16.21;68.77
43804;BME280;29430;52.924;-2.388;2023-03-18T14:16:12;98127.91;;;15.91;73.14
43804;BME280;29430;52.924;-2.388;2023-03-18T14:21:21;98127.41;;;16.08;74.58
43804;BME280;29430;52.924;-2.388;2023-03-18T14:26:19;98126.03;;;16.30;74.23
43804;BME280;29430;52.924;-2.388;2023-03-18T14:41:45;98130.72;;;16.05;74.37
43804;BME280;29430;52.924;-2.388;2023-03-18T14:46:41;98136.91;;;15.92;75.11
43804;BME280;29430;52.924;-2.388;2023-03-18T14:51:33;98161.66;;;15.52;73.02
43804;BME280;29430;52.924;-2.388;2023-03-18T14:56:34;98161.06;;;14.97;74.83
43804;BME280;29430;52.924;-2.388;2023-03-18T15:01:37;98156.44;;;14.42;75.40
43804;BME280;29430;52.924;-2.388;2023-03-18T15:06:30;98149.53;;;14.05;76.41
43804;BME280;29430;52.924;-2.388;2023-03-18T15:11:23;98146.03;;;13.94;78.88
43804;BME280;29430;52.924;-2.388;2023-03-18T15:16:18;98137.91;;;13.89;80.30
43804;BME280;29430;52.924;-2.388;2023-03-18T15:21:14;98133.84;;;13.82;82.70
43804;BME280;29430;52.924;-2.388;2023-03-18T15:26:19;98137.31;;;14.03;84.50
43804;BME280;29430;52.924;-2.388;2023-03-18T15:31:31;98130.66;;;14.19;81.45
43804;BME280;29430;52.924;-2.388;2023-03-18T15:36:23;98147.53;;;14.26;81.47
43804;BME280;29430;52.924;-2.388;2023-03-18T15:41:17;98153.53;;;14.28;81.91
43804;BME280;29430;52.924;-2.388;2023-03-18T15:51:45;98150.31;;;14.16;83.10
43804;BME280;29430;52.924;-2.388;2023-03-18T15:56:45;98158.22;;;14.23;84.02
43804;BME280;29430;52.924;-2.388;2023-03-18T16:01:38;98156.81;;;14.25;84.94
43804;BME280;29430;52.924;-2.388;2023-03-18T16:06:30;98166.66;;;14.21;84.61
43804;BME280;29430;52.924;-2.388;2023-03-18T16:11:24;98163.69;;;14.12;85.06
43804;BME280;29430;52.924;-2.388;2023-03-18T16:16:22;98171.63;;;14.04;84.82
43804;BME280;29430;52.924;-2.388;2023-03-18T16:21:15;98180.69;;;13.94;85.25
43804;BME280;29430;52.924;-2.388;2023-03-18T16:26:14;98177.16;;;13.93;88.26
43804;BME280;29430;52.924;-2.388;2023-03-18T16:31:07;98180.94;;;13.92;88.46
43804;BME280;29430;52.924;-2.388;2023-03-18T16:35:59;98186.69;;;13.81;88.05
43804;BME280;29430;52.924;-2.388;2023-03-18T16:40:52;98196.81;;;13.70;88.50
43804;BME280;29430;52.924;-2.388;2023-03-18T16:45:45;98202.81;;;13.61;88.62
43804;BME280;29430;52.924;-2.388;2023-03-18T16:50:39;98212.38;;;13.49;89.43
43804;BME280;29430;52.924;-2.388;2023-03-18T16:55:31;98217.84;;;13.38;92.17
43804;BME280;29430;52.924;-2.388;2023-03-18T17:00:27;98223.53;;;13.32;93.06
43804;BME280;29430;52.924;-2.388;2023-03-18T17:05:22;98220.53;;;13.18;94.29
43804;BME280;29430;52.924;-2.388;2023-03-18T17:10:16;98229.50;;;13.08;94.72
43804;BME280;29430;52.924;-2.388;2023-03-18T17:15:09;98232.75;;;13.05;94.01
43804;BME280;29430;52.924;-2.388;2023-03-18T17:20:12;98234.94;;;13.03;93.17
43804;BME280;29430;52.924;-2.388;2023-03-18T17:25:06;98248.53;;;12.93;92.32
43804;BME280;29430;52.924;-2.388;2023-03-18T17:29:57;98250.97;;;12.84;92.31
43804;BME280;29430;52.924;-2.388;2023-03-18T17:34:50;98269.44;;;12.77;93.33
43804;BME280;29430;52.924;-2.388;2023-03-18T17:39:42;98272.97;;;12.67;93.45
43804;BME280;29430;52.924;-2.388;2023-03-18T17:44:35;98273.78;;;12.62;93.59
43804;BME280;29430;52.924;-2.388;2023-03-18T17:49:27;98293.59;;;12.58;94.52
43804;BME280;29430;52.924;-2.388;2023-03-18T17:54:22;98298.19;;;12.52;95.25
43804;BME280;29430;52.924;-2.388;2023-03-18T17:59:17;98305.25;;;12.48;95.93
43804;BME280;29430;52.924;-2.388;2023-03-18T18:04:14;98313.09;;;12.39;96.09
43804;BME280;29430;52.924;-2.388;2023-03-18T18:09:09;98316.63;;;12.34;96.40
43804;BME280;29430;52.924;-2.388;2023-03-18T18:14:15;98305.69;;;12.29;96.72
43804;BME280;29430;52.924;-2.388;2023-03-18T18:19:12;98311.38;;;12.23;96.53
43804;BME280;29430;52.924;-2.388;2023-03-18T18:24:22;98318.94;;;12.15;96.55
43804;BME280;29430;52.924;-2.388;2023-03-18T18:29:18;98332.50;;;12.10;97.20
43804;BME280;29430;52.924;-2.388;2023-03-18T18:34:10;98331.97;;;12.08;97.57
43804;BME280;29430;52.924;-2.388;2023-03-18T18:39:02;98339.81;;;12.05;98.22
43804;BME280;29430;52.924;-2.388;2023-03-18T18:43:55;98343.88;;;12.02;97.78
43804;BME280;29430;52.924;-2.388;2023-03-18T18:48:47;98341.94;;;11.97;98.14
43804;BME280;29430;52.924;-2.388;2023-03-18T18:53:39;98340.28;;;11.96;98.42
43804;BME280;29430;52.924;-2.388;2023-03-18T18:58:33;98342.47;;;11.94;98.77
43804;BME280;29430;52.924;-2.388;2023-03-18T19:03:30;98344.34;;;11.94;98.77
43804;BME280;29430;52.924;-2.388;2023-03-18T19:13:15;98409.16;;;11.53;90.50
43804;BME280;29430;52.924;-2.388;2023-03-18T19:18:19;98412.94;;;11.02;90.03
43804;BME280;29430;52.924;-2.388;2023-03-18T19:23:20;98427.63;;;10.62;91.35
43804;BME280;29430;52.924;-2.388;2023-03-18T19:28:18;98431.75;;;10.31;93.07
43804;BME280;29430;52.924;-2.388;2023-03-18T19:33:20;98436.03;;;10.10;93.35
43804;BME280;29430;52.924;-2.388;2023-03-18T19:38:15;98447.25;;;9.84;93.89
43804;BME280;29430;52.924;-2.388;2023-03-18T19:43:17;98452.81;;;9.61;93.64
43804;BME280;29430;52.924;-2.388;2023-03-18T19:48:17;98457.34;;;9.43;95.93
43804;BME280;29430;52.924;-2.388;2023-03-18T19:53:14;98478.34;;;9.24;95.32
43804;BME280;29430;52.924;-2.388;2023-03-18T19:58:22;98491.91;;;9.12;96.78
43804;BME280;29430;52.924;-2.388;2023-03-18T20:03:16;98491.47;;;8.92;95.73
43804;BME280;29430;52.924;-2.388;2023-03-18T20:08:08;98489.72;;;8.74;97.33
43804;BME280;29430;52.924;-2.388;2023-03-18T20:13:00;98518.16;;;8.65;98.84
43804;BME280;29430;52.924;-2.388;2023-03-18T20:17:52;98528.28;;;8.57;98.20
43804;BME280;29430;52.924;-2.388;2023-03-18T20:22:47;98537.56;;;8.50;97.82
43804;BME280;29430;52.924;-2.388;2023-03-18T20:27:42;98546.19;;;8.40;98.32
43804;BME280;29430;52.924;-2.388;2023-03-18T20:32:33;98564.19;;;8.34;99.04
43804;BME280;29430;52.924;-2.388;2023-03-18T20:37:30;98562.75;;;8.32;98.43
43804;BME280;29430;52.924;-2.388;2023-03-18T20:42:24;98563.22;;;8.29;98.53
43804;BME280;29430;52.924;-2.388;2023-03-18T20:47:16;98565.34;;;8.27;98.23
43804;BME280;29430;52.924;-2.388;2023-03-18T20:52:20;98563.09;;;8.23;97.96
43804;BME280;29430;52.924;-2.388;2023-03-18T20:57:13;98562.25;;;8.23;98.44
43804;BME280;29430;52.924;-2.388;2023-03-18T21:02:27;98576.81;;;8.22;98.29
43804;BME280;29430;52.924;-2.388;2023-03-18T21:07:20;98587.03;;;8.20;98.11
43804;BME280;29430;52.924;-2.388;2023-03-18T21:12:17;98579.38;;;8.17;98.37
43804;BME280;29430;52.924;-2.388;2023-03-18T21:17:20;98591.84;;;8.18;97.30
43804;BME280;29430;52.924;-2.388;2023-03-18T21:22:19;98607.91;;;8.13;97.41
43804;BME280;29430;52.924;-2.388;2023-03-18T21:27:29;98607.06;;;8.12;98.14
43804;BME280;29430;52.924;-2.388;2023-03-18T21:32:25;98616.59;;;8.15;98.34
43804;BME280;29430;52.924;-2.388;2023-03-18T21:37:20;98635.75;;;8.13;97.83
43804;BME280;29430;52.924;-2.388;2023-03-18T21:42:21;98623.06;;;8.14;97.96
43804;BME280;29430;52.924;-2.388;2023-03-18T21:47:16;98614.50;;;8.17;97.08
43804;BME280;29430;52.924;-2.388;2023-03-18T21:52:26;98612.00;;;8.15;95.70
43804;BME280;29430;52.924;-2.388;2023-03-18T21:57:20;98607.41;;;8.04;95.63
43804;BME280;29430;52.924;-2.388;2023-03-18T22:02:29;98606.81;;;8.02;96.34
43804;BME280;29430;52.924;-2.388;2023-03-18T22:07:22;98607.50;;;7.97;97.37
43804;BME280;29430;52.924;-2.388;2023-03-18T22:12:22;98619.72;;;8.00;97.61
43804;BME280;29430;52.924;-2.388;2023-03-18T22:17:33;98633.13;;;8.06;98.08
43804;BME280;29430;52.924;-2.388;2023-03-18T22:22:35;98653.44;;;8.09;98.43
43804;BME280;29430;52.924;-2.388;2023-03-18T22:27:30;98639.34;;;8.07;98.75
43804;BME280;29430;52.924;-2.388;2023-03-18T22:37:21;98646.34;;;7.96;98.54
43804;BME280;29430;52.924;-2.388;2023-03-18T22:42:15;98667.19;;;7.89;98.16
43804;BME280;29430;52.924;-2.388;2023-03-18T22:47:13;98663.53;;;7.83;98.64
43804;BME280;29430;52.924;-2.388;2023-03-18T22:52:07;98668.31;;;7.81;98.16
43804;BME280;29430;52.924;-2.388;2023-03-18T22:57:02;98672.78;;;7.76;98.17
43804;BME280;29430;52.924;-2.388;2023-03-18T23:01:53;98659.34;;;7.69;98.07
43804;BME280;29430;52.924;-2.388;2023-03-18T23:06:45;98672.47;;;7.65;97.82
43804;BME280;29430;52.924;-2.388;2023-03-18T23:11:37;98676.66;;;7.61;97.61
43804;BME280;29430;52.924;-2.388;2023-03-18T23:16:29;98690.44;;;7.53;97.85
43804;BME280;29430;52.924;-2.388;2023-03-18T23:21:22;98693.81;;;7.48;97.97
43804;BME280;29430;52.924;-2.388;2023-03-18T23:26:15;98693.59;;;7.50;98.47
43804;BME280;29430;52.924;-2.388;2023-03-18T23:31:07;98701.31;;;7.46;98.22
43804;BME280;29430;52.924;-2.388;2023-03-18T23:35:59;98691.78;;;7.44;97.13
43804;BME280;29430;52.924;-2.388;2023-03-18T23:40:51;98690.19;;;7.36;96.02
43804;BME280;29430;52.924;-2.388;2023-03-18T23:45:43;98707.25;;;7.30;95.92
43804;BME280;29430;52.924;-2.388;2023-03-18T23:50:35;98698.56;;;7.28;95.91
43804;BME280;29430;52.924;-2.388;2023-03-18T23:55:27;98698.63;;;7.21;95.47
